Mountain Home Air Force Base
KMUO : now visible

Aeroporto :











RITROVATECI SU...

 
LOGIN :

Iscrizione | Disclaimer

   EN    FR    IT 

 









Sommario :    VFR   VFR Marginale   IFR   IFR Intensivo   IFR Molto Intensivo
Visibilità : 
Base nubi : 
>= 8 km
>= 3000ft
5 / 8 km
1000 / 3000 ft
1500m / 5 km
500 / 1000 ft
800 / 1500m
200 / 500 ft
< 800m
< 200 ft
Simboli :   Temporali  Nebbia  Neve Forte  Precipitazioni Forti  Vento > 20 kt






- Altitudine del aeroporto : 2996 ft


KMUO - Mountain Home Air Force Base

ULTIMO METAR :
  • 200958Z AUTO 13005KT 10SM CLR M07/M10 A3047 RMK AO2 SLP348 T10671104 $

METARs OBSOLETI :
  • 200858Z AUTO 14008KT 10SM CLR M06/M10 A3047 RMK AO2 SLP345 T10641098 52005 $

TAF TAF KMUO
Valido dal 20 a 10 ore il 21 a 16 ore UTC


201000Z 2010/2116 VRB06KT 9999 FEW200 QNH3047INS
BECMG 2015/2016 12015G25KT 9999 FEW060 BKN200 510009 QNH3045INS
BECMG 2101/2102 12009KT 9999 BKN170 QNH3036INS
BECMG 2115/2116 12012G18KT 9999 SCT180 QNH3035INS TX06/2022Z TNM08/2014Z



MetMap, La meteo Aeronautica in un colpo d'occhio ! - Copyright ORBIFLY Dicembre 2007 - Disclaimer

ORBIFLY MET'MAP TEAM :

Programmazione e sviluppo : Alexandra Zaïnal
Concezione : Baudouin d'Aumeries
Aiuto per la programmazione : Marc-Olivier Méhu
Supporto tecnico e logistico : Manuel Goepfert
Aiuto per la traduzione : Arnaldo La Scala

Contatto : metmap@orbifly.com




FONTI E CREDITI :

   NOAA       Earth
Advisory